Time;durP1;ratioP1;P1;durP2;ratioP2;P2;SDS_P1;SDS_P2;PMS_P1;PMS_P2;Temp;Humidity;BMP_temperature;BMP_pressure;BME280_temperature;BME280_humidity;BME280_pressure;Samples;Min_cycle;Max_cycle;Signal;HPM_P1;HPM_P2
2022/01/07 00:01:51;;;;;;;1999.90;999.90;;;;;;;-3.18;58.71;101378.72;4936280;28;98829;-71
2022/01/07 00:04:19;;;;;;;1999.90;999.90;;;;;;;-3.16;58.26;101374.56;4933217;28;101034;-71
2022/01/07 00:06:47;;;;;;;1999.90;999.90;;;;;;;-3.16;58.35;101362.47;4940428;28;97270;-72
2022/01/07 00:09:15;;;;;;;1999.90;999.90;;;;;;;-3.16;58.30;101374.56;4943480;28;96837;-72
2022/01/07 00:11:43;;;;;;;1999.90;999.90;;;;;;;-3.13;57.99;101378.34;4944983;28;96822;-72
2022/01/07 00:14:11;;;;;;;1999.90;999.90;;;;;;;-3.14;58.56;101384.34;4944881;28;97811;-73
2022/01/07 00:16:40;;;;;;;1999.90;999.90;;;;;;;-3.15;57.90;101381.63;4945926;28;96787;-71
2022/01/07 00:19:07;;;;;;;1999.90;999.90;;;;;;;-3.20;58.29;101367.31;4945493;28;96873;-72
2022/01/07 00:21:35;;;;;;;1999.90;999.90;;;;;;;-3.23;58.28;101369.63;4943409;28;99501;-72
2022/01/07 00:24:03;;;;;;;1999.90;999.90;;;;;;;-3.23;57.85;101356.63;4946339;28;97381;-72
2022/01/07 00:26:31;;;;;;;1999.90;999.90;;;;;;;-3.25;58.20;101355.56;4943784;28;98054;-71
2022/01/07 00:28:58;;;;;;;1999.90;999.90;;;;;;;-3.28;58.30;101350.13;4945290;28;97844;-72
2022/01/07 00:31:29;;;;;;;1999.90;999.90;;;;;;;-3.24;58.47;101357.41;4946983;28;98784;-72
2022/01/07 00:33:58;;;;;;;1999.90;999.90;;;;;;;-3.23;58.70;101349.72;4946549;28;98480;-72
2022/01/07 00:36:26;;;;;;;1999.90;999.90;;;;;;;-3.19;58.23;101350.91;4948310;28;97303;-72
2022/01/07 00:38:54;;;;;;;1999.90;999.90;;;;;;;-3.20;58.58;101351.69;4948186;28;96878;-72
2022/01/07 00:41:22;;;;;;;1999.90;999.90;;;;;;;-3.19;58.05;101350.91;4947898;28;99366;-73
2022/01/07 00:43:50;;;;;;;1999.90;999.90;;;;;;;-3.19;58.85;101341.41;4947082;28;96839;-73
2022/01/07 00:46:19;;;;;;;1999.90;999.90;;;;;;;-3.22;57.85;101335.94;4946333;28;97543;-73
2022/01/07 00:48:47;;;;;;;1999.90;999.90;;;;;;;-3.22;58.55;101341.13;4939394;28;99005;-73
2022/01/07 00:51:16;;;;;;;1999.90;999.90;;;;;;;-3.25;58.59;101343.50;4941045;28;97700;-73
2022/01/07 00:53:43;;;;;;;1999.90;999.90;;;;;;;-3.26;58.13;101333.88;4935804;28;98699;-73
2022/01/07 00:56:11;;;;;;;1999.90;999.90;;;;;;;-3.22;58.81;101337.63;4938310;28;99682;-72
2022/01/07 00:58:39;;;;;;;1999.90;999.90;;;;;;;-3.19;58.64;101328.41;4939098;28;97381;-73
2022/01/07 01:01:07;;;;;;;1999.90;999.90;;;;;;;-3.17;58.07;101328.53;4939540;28;99502;-70
2022/01/07 01:03:35;;;;;;;1999.90;999.90;;;;;;;-3.16;58.16;101326.03;4937836;28;98817;-70
2022/01/07 01:06:03;;;;;;;1999.90;999.90;;;;;;;-3.18;58.26;101325.00;4939054;28;97336;-72
2022/01/07 01:08:32;;;;;;;1999.90;999.90;;;;;;;-3.21;57.95;101322.16;4939764;28;98262;-69
2022/01/07 01:10:59;;;;;;;1999.90;999.90;;;;;;;-3.26;58.42;101330.34;4942378;28;98080;-71
2022/01/07 01:13:31;;;;;;;1999.90;999.90;;;;;;;-3.28;58.24;101331.91;4939191;28;100261;-72
2022/01/07 01:15:59;;;;;;;1999.90;999.90;;;;;;;-3.28;58.68;101329.31;4941640;28;97276;-71
2022/01/07 01:18:27;;;;;;;1999.90;999.90;;;;;;;-3.27;58.69;101334.63;4936040;28;96874;-71
2022/01/07 01:20:54;;;;;;;1999.90;999.90;;;;;;;-3.28;58.34;101338.03;4941739;28;100450;-71
2022/01/07 01:23:22;;;;;;;1999.90;999.90;;;;;;;-3.32;58.47;101340.22;4943071;28;98939;-71
2022/01/07 01:25:51;;;;;;;1999.90;999.90;;;;;;;-3.34;58.20;101341.78;4939955;28;97765;-71
2022/01/07 01:28:19;;;;;;;1999.90;999.90;;;;;;;-3.32;58.49;101327.22;4937792;28;97437;-71
2022/01/07 01:30:47;;;;;;;1999.90;999.90;;;;;;;-3.28;58.75;101338.03;4939832;28;99645;-70
2022/01/07 01:33:14;;;;;;;1999.90;999.90;;;;;;;-3.25;58.61;101337.38;4957462;28;98944;-71
2022/01/07 01:35:42;;;;;;;1999.90;999.90;;;;;;;-3.23;58.37;101338.41;4945471;28;97097;-70
2022/01/07 01:38:10;;;;;;;1999.90;999.90;;;;;;;-3.21;58.64;101331.66;4937478;28;97421;-70
2022/01/07 01:40:38;;;;;;;1999.90;999.90;;;;;;;-3.21;58.69;101339.44;4946503;28;98202;-71
2022/01/07 01:43:07;;;;;;;1999.90;999.90;;;;;;;-3.19;58.66;101332.69;4948442;28;97635;-74
2022/01/07 01:45:34;;;;;;;1999.90;999.90;;;;;;;-3.17;58.51;101328.53;4939331;28;96821;-71
2022/01/07 01:48:02;;;;;;;1999.90;999.90;;;;;;;-3.15;58.05;101316.56;4941009;28;97932;-71
2022/01/07 01:50:30;;;;;;;1999.90;999.90;;;;;;;-3.15;57.70;101312.22;4940662;28;98731;-69
2022/01/07 01:52:58;;;;;;;1999.90;999.90;;;;;;;-3.14;58.04;101305.34;4944886;28;97626;-71
2022/01/07 01:55:27;;;;;;;1999.90;999.90;;;;;;;-3.12;57.90;101295.97;4943758;28;97591;-71
2022/01/07 01:57:56;;;;;;;1999.90;999.90;;;;;;;-3.12;57.82;101295.97;4943425;28;96892;-72
2022/01/07 02:00:27;;;;;;;1999.90;999.90;;;;;;;-3.14;58.27;101282.84;4945500;28;98767;-71
2022/01/07 02:02:55;;;;;;;1999.90;999.90;;;;;;;-3.15;57.88;101285.31;4947761;28;99595;-72
2022/01/07 02:05:23;;;;;;;1999.90;999.90;;;;;;;-3.16;58.36;101279.19;4947234;28;96739;-71
2022/01/07 02:07:51;;;;;;;1999.90;999.90;;;;;;;-3.15;58.34;101280.13;4947344;28;96901;-73
2022/01/07 02:10:19;;;;;;;1999.90;999.90;;;;;;;-3.15;58.10;101270.59;4963474;28;99638;-71
2022/01/07 02:12:47;;;;;;;1999.90;999.90;;;;;;;-3.15;58.16;101269.72;4949172;28;97700;-71
2022/01/07 02:15:16;;;;;;;1999.90;999.90;;;;;;;-3.14;57.96;101272.44;4947274;28;97254;-71
2022/01/07 02:17:47;;;;;;;1999.90;999.90;;;;;;;-3.14;57.85;101271.50;4948445;28;96811;-72
2022/01/07 02:20:18;;;;;;;1999.90;999.90;;;;;;;-3.16;58.22;101271.38;4947808;28;97822;-72
2022/01/07 02:22:46;;;;;;;1999.90;999.90;;;;;;;-3.17;58.25;101269.59;4931308;28;98123;-71
2022/01/07 02:25:14;;;;;;;1999.90;999.90;;;;;;;-3.20;58.62;101263.22;4947986;28;96826;-72
2022/01/07 02:27:44;;;;;;;1999.90;999.90;;;;;;;-3.22;58.60;101257.84;4944938;28;96975;-72
2022/01/07 02:30:15;;;;;;;1999.90;999.90;;;;;;;-3.21;58.13;101258.78;4943043;28;99458;-72
2022/01/07 02:32:42;;;;;;;1999.90;999.90;;;;;;;-3.20;58.64;101258.00;4948188;28;97998;-73
2022/01/07 02:35:11;;;;;;;1999.90;999.90;;;;;;;-3.19;58.22;101252.00;4947205;28;97735;-70
2022/01/07 02:37:40;;;;;;;1999.90;999.90;;;;;;;-3.19;58.09;101237.31;4947631;28;97174;-72
2022/01/07 02:40:09;;;;;;;1999.90;999.90;;;;;;;-3.17;58.28;101242.63;4936546;28;97757;-71
2022/01/07 02:42:38;;;;;;;1999.90;999.90;;;;;;;-3.21;57.93;101241.47;4931458;28;101461;-72
2022/01/07 02:45:08;;;;;;;1999.90;999.90;;;;;;;-3.21;58.05;101232.75;4944746;28;96849;-71
2022/01/07 02:47:48;;;;;;;1999.90;999.90;;;;;;;-3.22;57.84;101226.63;4947469;28;97771;-71
2022/01/07 02:50:17;;;;;;;1999.90;999.90;;;;;;;-3.29;58.39;101233.81;4945031;28;101085;-72
2022/01/07 02:52:46;;;;;;;1999.90;999.90;;;;;;;-3.35;58.38;101220.31;4947312;28;99440;-72
2022/01/07 02:55:14;;;;;;;1999.90;999.90;;;;;;;-3.39;58.45;101213.03;4946046;28;97424;-72
2022/01/07 02:57:42;;;;;;;1999.90;999.90;;;;;;;-3.44;58.32;101203.94;4948815;28;96850;-72
2022/01/07 03:00:11;;;;;;;1999.90;999.90;;;;;;;-3.45;58.73;101194.28;4944379;28;98823;-71
2022/01/07 03:02:40;;;;;;;1999.90;999.90;;;;;;;-3.43;58.53;101193.66;4943200;28;99325;-70
2022/01/07 03:05:09;;;;;;;1999.90;999.90;;;;;;;-3.37;58.88;101195.84;4944452;28;97152;-71
2022/01/07 03:07:37;;;;;;;1999.90;999.90;;;;;;;-3.37;58.41;101204.56;4942525;28;98320;-72
2022/01/07 03:10:09;;;;;;;1999.90;999.90;;;;;;;-3.36;58.41;101190.78;4926190;28;100929;-72
2022/01/07 03:12:51;;;;;;;1999.90;999.90;;;;;;;-3.34;58.50;101190.88;4945713;28;97764;-72
2022/01/07 03:15:19;;;;;;;1999.90;999.90;;;;;;;-3.41;58.34;101181.69;4930991;28;96850;-71
2022/01/07 03:17:47;;;;;;;1999.90;999.90;;;;;;;-3.43;58.53;101175.44;4947156;28;96763;-71
2022/01/07 03:20:16;;;;;;;1999.90;999.90;;;;;;;-3.47;58.93;101173.38;4945546;28;99495;-72
2022/01/07 03:22:45;;;;;;;1999.90;999.90;;;;;;;-3.47;58.61;101169.84;4949224;28;97687;-71
2022/01/07 03:25:16;;;;;;;1999.90;999.90;;;;;;;-3.45;58.83;101168.28;4947486;28;97093;-73
2022/01/07 03:27:44;;;;;;;1999.90;999.90;;;;;;;-3.43;58.85;101153.72;4948049;28;96798;-71
2022/01/07 03:30:16;;;;;;;1999.90;999.90;;;;;;;-3.41;59.07;101154.75;4944084;28;98537;-72
2022/01/07 03:32:44;;;;;;;1999.90;999.90;;;;;;;-3.39;58.78;101154.09;4944684;28;99390;-71
2022/01/07 03:35:14;;;;;;;1999.90;999.90;;;;;;;-3.39;58.89;101148.00;4940575;28;97477;-71
2022/01/07 03:37:42;;;;;;;1999.90;999.90;;;;;;;-3.43;59.07;101148.50;4945689;28;98235;-71
2022/01/07 03:40:13;;;;;;;1999.90;999.90;;;;;;;-3.42;58.74;101151.22;4942374;28;97791;-72
2022/01/07 03:42:44;;;;;;;1999.90;999.90;;;;;;;-3.45;58.53;101142.28;4947402;28;98734;-71
2022/01/07 03:45:12;;;;;;;1999.90;999.90;;;;;;;-3.43;58.55;101140.72;4946065;28;97632;-69
2022/01/07 03:47:40;;;;;;;1999.90;999.90;;;;;;;-3.41;58.49;101136.53;4947168;28;97025;-71
2022/01/07 03:50:10;;;;;;;1999.90;999.90;;;;;;;-3.42;58.98;101125.22;4945121;28;98510;-72
2022/01/07 03:52:39;;;;;;;1999.90;999.90;;;;;;;-3.38;58.65;101134.19;4946583;28;98679;-71
2022/01/07 03:55:12;;;;;;;1999.90;999.90;;;;;;;-3.36;58.85;101127.41;4945754;28;98710;-72
2022/01/07 03:57:40;;;;;;;1999.90;999.90;;;;;;;-3.37;58.18;101118.72;4950382;28;97641;-71
2022/01/07 04:00:12;;;;;;;1999.90;999.90;;;;;;;-3.37;58.93;101116.13;4945059;28;101039;-72
2022/01/07 04:02:40;;;;;;;1999.90;999.90;;;;;;;-3.38;58.83;101109.09;4949335;28;98059;-71
2022/01/07 04:05:08;;;;;;;1999.90;999.90;;;;;;;-3.32;58.50;101109.59;4947891;28;97172;-71
2022/01/07 04:07:36;;;;;;;1999.90;999.90;;;;;;;-3.30;58.43;101107.09;4949270;28;97841;-71
2022/01/07 04:10:05;;;;;;;1999.90;999.90;;;;;;;-3.28;58.42;101097.75;4947235;28;97895;-71
2022/01/07 04:12:47;;;;;;;1999.90;999.90;;;;;;;-3.27;58.51;101094.34;4949479;28;99036;-71
2022/01/07 04:15:31;;;;;;;1999.90;999.90;;;;;;;-3.25;58.55;101090.16;4950457;28;96789;-70
2022/01/07 04:18:12;;;;;;;1999.90;999.90;;;;;;;-3.23;58.69;101096.41;4948444;28;97048;-72
2022/01/07 04:20:40;;;;;;;1999.90;999.90;;;;;;;-3.20;59.02;101088.88;4949021;28;98954;-70
2022/01/07 04:23:09;;;;;;;1999.90;999.90;;;;;;;-3.14;58.84;101092.84;4950221;28;100326;-72
2022/01/07 04:25:39;;;;;;;1999.90;999.90;;;;;;;-3.12;58.28;101093.88;4945163;28;96909;-73
2022/01/07 04:28:08;;;;;;;1999.90;999.90;;;;;;;-3.07;58.84;101081.22;4945741;28;97005;-70
2022/01/07 04:30:41;;;;;;;1999.90;999.90;;;;;;;-3.01;58.68;101079.13;4947845;28;98877;-72
2022/01/07 04:33:12;;;;;;;1999.90;999.90;;;;;;;-2.96;58.55;101073.50;4946663;28;100844;-72
2022/01/07 04:35:40;;;;;;;1999.90;999.90;;;;;;;-2.92;58.19;101072.03;4948262;28;100207;-72
2022/01/07 04:38:09;;;;;;;1999.90;999.90;;;;;;;-2.91;57.80;101066.06;4948739;28;97558;-72
2022/01/07 04:40:37;;;;;;;1999.90;999.90;;;;;;;-2.89;58.32;101056.66;4948037;28;96966;-71
2022/01/07 04:43:06;;;;;;;1999.90;999.90;;;;;;;-2.86;58.53;101068.25;4951160;28;97767;-71
2022/01/07 04:45:34;;;;;;;1999.90;999.90;;;;;;;-2.85;57.98;101064.84;4948457;28;97672;-72
2022/01/07 04:48:05;;;;;;;1999.90;999.90;;;;;;;-2.82;58.27;101058.06;4947774;28;97559;-71
2022/01/07 04:50:33;;;;;;;1999.90;999.90;;;;;;;-2.89;58.32;101056.66;4948102;28;99163;-73
2022/01/07 04:53:00;;;;;;;1999.90;999.90;;;;;;;-2.90;58.19;101047.03;4949651;28;99023;-72
2022/01/07 04:55:35;;;;;;;1999.90;999.90;;;;;;;-2.88;58.37;101040.25;4946995;28;97848;-71
2022/01/07 04:58:04;;;;;;;1999.90;999.90;;;;;;;-2.85;58.25;101031.00;4945057;28;97865;-71
2022/01/07 05:00:32;;;;;;;1999.90;999.90;;;;;;;-2.82;58.45;101031.22;4948422;28;97748;-70
2022/01/07 05:02:59;;;;;;;1999.90;999.90;;;;;;;-2.82;57.65;101027.72;4948636;28;99425;-69
2022/01/07 05:05:29;;;;;;;1999.90;999.90;;;;;;;-2.84;57.77;101027.59;4945904;28;96848;-72
2022/01/07 05:07:57;;;;;;;1999.90;999.90;;;;;;;-2.87;57.88;101018.63;4945461;28;96836;-73
2022/01/07 05:10:26;;;;;;;1999.90;999.90;;;;;;;-2.88;58.08;101027.25;4960638;28;98652;-73
2022/01/07 05:12:53;;;;;;;1999.90;999.90;;;;;;;-2.91;57.90;101016.59;4948748;28;97806;-73
2022/01/07 05:15:23;;;;;;;1999.90;999.90;;;;;;;-2.91;58.56;101014.00;4949040;28;99007;-74
2022/01/07 05:17:51;;;;;;;1999.90;999.90;;;;;;;-2.89;58.54;101018.50;4949157;28;98230;-71
2022/01/07 05:20:19;;;;;;;1999.90;999.90;;;;;;;-2.87;58.05;101010.81;4947693;28;97911;-71
2022/01/07 05:22:49;;;;;;;1999.90;999.90;;;;;;;-2.85;58.60;101006.63;4945157;28;98840;-72
2022/01/07 05:25:17;;;;;;;1999.90;999.90;;;;;;;-2.82;58.18;101004.28;4942881;28;97913;-71
2022/01/07 05:27:45;;;;;;;1999.90;999.90;;;;;;;-2.87;58.16;100995.19;4947097;28;98695;-72
2022/01/07 05:30:14;;;;;;;1999.90;999.90;;;;;;;-2.86;57.93;100992.75;4946844;28;97687;-71
2022/01/07 05:32:41;;;;;;;1999.90;999.90;;;;;;;-2.87;58.41;100983.09;4949043;28;99194;-72
2022/01/07 05:35:10;;;;;;;1999.90;999.90;;;;;;;-2.85;58.13;100991.03;4946101;28;98408;-71
2022/01/07 05:37:37;;;;;;;1999.90;999.90;;;;;;;-2.85;57.95;100986.72;4949175;28;97193;-72
2022/01/07 05:40:08;;;;;;;1999.90;999.90;;;;;;;-2.80;58.47;100987.06;4947265;28;96933;-72
2022/01/07 05:42:36;;;;;;;1999.90;999.90;;;;;;;-2.77;57.70;100983.81;4948726;28;97608;-74
2022/01/07 05:45:04;;;;;;;1999.90;999.90;;;;;;;-2.78;58.37;100982.88;4947452;28;96936;-74
2022/01/07 05:47:32;;;;;;;1999.90;999.90;;;;;;;-2.76;57.79;100972.63;4941192;28;97726;-75
2022/01/07 05:50:00;;;;;;;1999.90;999.90;;;;;;;-2.76;58.33;100967.41;4944664;28;96794;-73
2022/01/07 05:52:27;;;;;;;1999.90;999.90;;;;;;;-2.75;57.87;100967.53;4948552;28;97855;-73
2022/01/07 05:54:55;;;;;;;1999.90;999.90;;;;;;;-2.76;58.06;100978.72;4945078;28;97167;-72
2022/01/07 05:57:24;;;;;;;1999.90;999.90;;;;;;;-2.75;57.83;100971.81;4947060;28;96923;-72
2022/01/07 05:59:51;;;;;;;1999.90;999.90;;;;;;;-2.73;57.78;100963.34;4945592;28;97721;-71
2022/01/07 06:02:19;;;;;;;1999.90;999.90;;;;;;;-2.73;58.46;100960.75;4947408;28;97687;-72
2022/01/07 06:04:48;;;;;;;1999.90;999.90;;;;;;;-2.74;58.05;100953.69;4944382;28;98493;-70
2022/01/07 06:07:15;;;;;;;1999.90;999.90;;;;;;;-2.74;58.22;100953.69;4946780;28;97009;-71
2022/01/07 06:09:43;;;;;;;1999.90;999.90;;;;;;;-2.74;57.73;100958.91;4948026;28;97919;-72
2022/01/07 06:12:12;;;;;;;1999.90;999.90;;;;;;;-2.75;57.49;100961.41;4949304;28;97875;-73
2022/01/07 06:14:41;;;;;;;1999.90;999.90;;;;;;;-2.78;57.63;100955.97;4948603;28;97016;-73
2022/01/07 06:17:10;;;;;;;1999.90;999.90;;;;;;;-2.86;58.17;100948.47;4947827;28;98601;-73
2022/01/07 06:19:38;;;;;;;1999.90;999.90;;;;;;;-2.84;57.97;100951.19;4948594;28;99018;-72
2022/01/07 06:22:09;;;;;;;1999.90;999.90;;;;;;;-2.82;58.20;100946.09;4945692;28;96841;-73
2022/01/07 06:24:37;;;;;;;1999.90;999.90;;;;;;;-2.82;57.78;100942.69;4942759;28;96904;-73
2022/01/07 06:27:06;;;;;;;1999.90;999.90;;;;;;;-2.82;58.32;100950.50;4930811;28;97016;-72
2022/01/07 06:29:33;;;;;;;1999.90;999.90;;;;;;;-2.82;58.19;100952.22;4944611;28;98692;-73
2022/01/07 06:32:07;;;;;;;1999.90;999.90;;;;;;;-2.84;57.50;100946.00;4947187;28;99671;-74
2022/01/07 06:34:35;;;;;;;1999.90;999.90;;;;;;;-2.82;57.97;100945.28;4943717;28;97828;-74
2022/01/07 06:37:03;;;;;;;1999.90;999.90;;;;;;;-2.80;58.07;100953.22;4945818;28;96786;-73
2022/01/07 06:39:32;;;;;;;1999.90;999.90;;;;;;;-2.84;58.20;100951.19;4948341;28;98254;-73
2022/01/07 06:42:01;;;;;;;1999.90;999.90;;;;;;;-2.86;57.65;100947.56;4946709;28;98945;-73
2022/01/07 06:44:29;;;;;;;1999.90;999.90;;;;;;;-2.84;57.96;100953.81;4944214;28;98069;-75
2022/01/07 06:46:56;;;;;;;1999.90;999.90;;;;;;;-2.85;57.67;100937.25;4946409;28;97159;-74
2022/01/07 06:49:25;;;;;;;1999.90;999.90;;;;;;;-2.84;57.90;100952.06;4930964;28;97475;-75
2022/01/07 06:51:54;;;;;;;1999.90;999.90;;;;;;;-2.81;58.18;100943.59;4944257;28;99234;-75
2022/01/07 06:54:22;;;;;;;1999.90;999.90;;;;;;;-2.79;57.59;100944.63;4938006;28;98162;-73
2022/01/07 06:56:49;;;;;;;1999.90;999.90;;;;;;;-2.81;57.97;100938.41;4947493;28;97205;-72
2022/01/07 06:59:17;;;;;;;1999.90;999.90;;;;;;;-2.85;57.53;100939.88;4945113;28;99656;-73
2022/01/07 07:01:47;;;;;;;1999.90;999.90;;;;;;;-2.87;57.47;100936.22;4946538;28;97413;-73
2022/01/07 07:04:16;;;;;;;1999.90;999.90;;;;;;;-2.88;58.22;100933.50;4946331;28;97536;-73
2022/01/07 07:06:46;;;;;;;1999.90;999.90;;;;;;;-2.87;57.90;100931.03;4945359;28;98149;-73
2022/01/07 07:09:15;;;;;;;1999.90;999.90;;;;;;;-2.86;57.74;100937.16;4945973;28;98177;-72
2022/01/07 07:11:43;;;;;;;1999.90;999.90;;;;;;;-2.85;57.77;100928.53;4949341;28;97753;-72
2022/01/07 07:14:11;;;;;;;1999.90;999.90;;;;;;;-2.85;58.21;100924.25;4931768;28;97362;-72
2022/01/07 07:16:40;;;;;;;1999.90;999.90;;;;;;;-2.86;58.00;100927.66;4947357;28;96935;-72
2022/01/07 07:19:07;;;;;;;1999.90;999.90;;;;;;;-2.84;58.25;100927.75;4944973;28;100481;-72
2022/01/07 07:21:35;;;;;;;1999.90;999.90;;;;;;;-2.82;57.97;100920.97;4946184;28;99708;-72
2022/01/07 07:24:05;;;;;;;1999.90;999.90;;;;;;;-2.79;58.23;100920.28;4947283;28;97385;-74
2022/01/07 07:26:33;;;;;;;1999.90;999.90;;;;;;;-2.75;58.08;100922.34;4946128;28;97984;-74
2022/01/07 07:29:01;;;;;;;1999.90;999.90;;;;;;;-2.73;57.53;100912.94;4945576;28;102060;-73
2022/01/07 07:31:30;;;;;;;1999.90;999.90;;;;;;;-2.72;58.28;100909.53;4940915;28;97552;-73
2022/01/07 07:34:20;;;;;;;1999.90;999.90;;;;;;;-2.72;57.49;100914.75;4960543;28;98187;-72
2022/01/07 07:36:48;;;;;;;1999.90;999.90;;;;;;;-2.71;58.14;100913.97;4944133;28;96856;-72
2022/01/07 07:39:17;;;;;;;1999.90;999.90;;;;;;;-2.70;57.46;100911.47;4940604;28;99471;-72
2022/01/07 07:41:44;;;;;;;1999.90;999.90;;;;;;;-2.68;57.28;100907.28;4957332;28;96933;-72
2022/01/07 07:44:12;;;;;;;1999.90;999.90;;;;;;;-2.66;57.91;100907.41;4945127;28;96788;-72
2022/01/07 07:46:41;;;;;;;1999.90;999.90;;;;;;;-2.65;57.80;100915.31;4938032;28;97601;-72
2022/01/07 07:49:10;;;;;;;1999.90;999.90;;;;;;;-2.63;58.13;100910.22;4939894;28;97248;-72
2022/01/07 07:51:38;;;;;;;1999.90;999.90;;;;;;;-2.62;57.51;100904.25;4936312;28;98661;-72
2022/01/07 07:54:06;;;;;;;1999.90;999.90;;;;;;;-2.61;57.58;100899.16;4934489;28;96928;-73
2022/01/07 07:56:35;;;;;;;1999.90;999.90;;;;;;;-2.60;57.64;100902.66;4937525;28;97573;-73
2022/01/07 07:59:03;;;;;;;1999.90;999.90;;;;;;;-2.60;57.35;100885.31;4945228;28;99294;-73
2022/01/07 08:01:31;;;;;;;1999.90;999.90;;;;;;;-2.58;57.58;100888.94;4944319;28;102074;-71
2022/01/07 08:03:59;;;;;;;1999.90;999.90;;;;;;;-2.57;57.49;100885.56;4938510;28;98482;-74
2022/01/07 08:06:27;;;;;;;1999.90;999.90;;;;;;;-2.56;57.48;100891.69;4937173;28;98540;-73
2022/01/07 08:08:54;;;;;;;1999.90;999.90;;;;;;;-2.55;57.87;100884.00;4941709;28;98677;-73
2022/01/07 08:11:24;;;;;;;1999.90;999.90;;;;;;;-2.52;57.91;100884.19;4946108;28;98538;-73
2022/01/07 08:16:38;;;;;;;1999.90;999.90;;;;;;;-2.46;57.25;100879.47;4940389;28;97949;-74
2022/01/07 08:19:06;;;;;;;1999.90;999.90;;;;;;;-2.43;57.87;100864.03;4942270;28;97758;-72
2022/01/07 08:21:33;;;;;;;1999.90;999.90;;;;;;;-2.40;57.07;100864.25;4940422;28;97517;-72
2022/01/07 08:24:01;;;;;;;1999.90;999.90;;;;;;;-2.38;57.00;100872.22;4941728;28;96793;-77
2022/01/07 08:26:29;;;;;;;1999.90;999.90;;;;;;;-2.39;56.92;100873.00;4953385;28;96968;-72
2022/01/07 08:29:02;;;;;;;1999.90;999.90;;;;;;;-2.43;57.18;100866.66;4939182;28;98158;-73
2022/01/07 08:36:57;;;;;;;1999.90;999.90;;;;;;;-2.37;57.25;100859.28;4932607;28;97052;-74
2022/01/07 08:39:25;;;;;;;1999.90;999.90;;;;;;;-2.36;57.57;100850.66;4937502;28;99124;-75
2022/01/07 08:41:54;;;;;;;1999.90;999.90;;;;;;;-2.34;57.42;100853.38;4945532;28;99828;-74
2022/01/07 08:44:25;;;;;;;1999.90;999.90;;;;;;;-2.32;57.70;100849.19;4926211;28;99212;-74
2022/01/07 08:46:53;;;;;;;1999.90;999.90;;;;;;;-2.29;57.83;100846.81;4947627;28;97876;-73
2022/01/07 08:49:22;;;;;;;1999.90;999.90;;;;;;;-2.26;57.75;100847.97;4947529;28;98165;-72
2022/01/07 08:51:49;;;;;;;1999.90;999.90;;;;;;;-2.24;57.46;100848.97;4948792;28;97607;-72
2022/01/07 08:54:17;;;;;;;1999.90;999.90;;;;;;;-2.21;57.42;100851.78;4946825;28;97181;-74
2022/01/07 08:56:45;;;;;;;1999.90;999.90;;;;;;;-2.17;57.54;100853.88;4961510;28;96906;-73
2022/01/07 08:59:12;;;;;;;1999.90;999.90;;;;;;;-2.13;57.74;100849.78;4944842;28;97739;-74
2022/01/07 09:01:42;;;;;;;1999.90;999.90;;;;;;;-2.13;57.67;100845.47;4964329;28;99215;-74
2022/01/07 09:04:10;;;;;;;1999.90;999.90;;;;;;;-2.11;57.34;100851.69;4945574;28;97413;-74
2022/01/07 09:06:37;;;;;;;1999.90;999.90;;;;;;;-2.11;57.37;100849.06;4947899;28;97037;-74
2022/01/07 09:09:05;;;;;;;1999.90;999.90;;;;;;;-2.12;57.27;100842.06;4944502;28;98495;-73
2022/01/07 09:11:33;;;;;;;1999.90;999.90;;;;;;;-2.10;57.38;100844.78;4946231;28;97715;-74
2022/01/07 09:14:01;;;;;;;1999.90;999.90;;;;;;;-2.07;57.49;100838.09;4946740;28;97191;-74
2022/01/07 09:16:28;;;;;;;1999.90;999.90;;;;;;;-2.02;57.51;100834.13;4928120;28;97303;-74
2022/01/07 09:18:57;;;;;;;1999.90;999.90;;;;;;;-2.00;57.50;100829.91;4946034;28;99833;-74
2022/01/07 09:21:25;;;;;;;1999.90;999.90;;;;;;;-1.96;57.23;100831.94;4945551;28;97580;-74
2022/01/07 09:23:53;;;;;;;1999.90;999.90;;;;;;;-1.91;56.89;100832.28;4948699;28;98557;-74
2022/01/07 09:26:21;;;;;;;1999.90;999.90;;;;;;;-1.86;56.94;100833.50;4946504;28;98309;-74
2022/01/07 09:28:48;;;;;;;1999.90;999.90;;;;;;;-1.82;56.63;100832.03;4945823;28;100845;-74
2022/01/07 09:31:17;;;;;;;1999.90;999.90;;;;;;;-1.78;56.42;100844.47;4946886;28;98121;-73
2022/01/07 09:33:45;;;;;;;1999.90;999.90;;;;;;;-1.79;56.81;100837.44;4944996;28;100584;-72
2022/01/07 09:36:34;;;;;;;1999.90;999.90;;;;;;;-1.81;56.90;100829.50;4934863;28;96934;-74
2022/01/07 09:39:02;;;;;;;1999.90;999.90;;;;;;;-1.86;57.06;100837.03;4940623;28;98075;-73
2022/01/07 09:41:30;;;;;;;1999.90;999.90;;;;;;;-1.92;56.92;100835.66;4943014;28;97307;-73
2022/01/07 09:43:57;;;;;;;1999.90;999.90;;;;;;;-1.94;57.42;100829.44;4945199;28;98126;-72
2022/01/07 09:46:25;;;;;;;1999.90;999.90;;;;;;;-1.89;57.06;100831.56;4944079;28;97704;-72
2022/01/07 09:48:53;;;;;;;1999.90;999.90;;;;;;;-1.86;56.94;100831.81;4941938;28;99308;-73
2022/01/07 09:51:22;;;;;;;1999.90;999.90;;;;;;;-1.83;56.70;100820.66;4945987;28;99175;-73
2022/01/07 09:53:51;;;;;;;1999.90;999.90;;;;;;;-1.77;56.88;100828.94;4941695;28;97058;-70
2022/01/07 09:56:19;;;;;;;1999.90;999.90;;;;;;;-1.74;57.16;100821.31;4939889;28;97801;-73
2022/01/07 09:58:47;;;;;;;1999.90;999.90;;;;;;;-1.72;56.65;100818.84;4941815;28;98655;-73
2022/01/07 10:01:17;;;;;;;1999.90;999.90;;;;;;;-1.71;57.14;100808.50;4944668;28;99668;-73
2022/01/07 10:03:45;;;;;;;1999.90;999.90;;;;;;;-1.71;56.63;100815.44;4941863;28;99095;-72
2022/01/07 10:06:21;;;;;;;1999.90;999.90;;;;;;;-1.74;56.95;100813.50;4943651;28;96842;-71
2022/01/07 10:09:05;;;;;;;1999.90;999.90;;;;;;;-1.77;56.30;100814.97;4939767;28;99219;-71
2022/01/07 10:11:33;;;;;;;1999.90;999.90;;;;;;;-1.74;57.28;100817.84;4942440;28;100710;-72
2022/01/07 10:14:22;;;;;;;1999.90;999.90;;;;;;;-1.74;56.86;100808.28;4942717;28;98257;-73
2022/01/07 10:16:52;;;;;;;1999.90;999.90;;;;;;;-1.70;57.06;100812.00;4920212;28;97069;-73
2022/01/07 10:19:34;;;;;;;1999.90;999.90;;;;;;;-1.73;56.86;100810.09;4945116;28;97608;-72
2022/01/07 10:22:05;;;;;;;1999.90;999.90;;;;;;;-1.70;57.41;100809.41;4923291;28;102407;-73
2022/01/07 10:24:53;;;;;;;1999.90;999.90;;;;;;;-1.68;57.25;100810.41;4942339;28;97156;-71
2022/01/07 10:27:21;;;;;;;1999.90;999.90;;;;;;;-1.64;57.49;100807.22;4945246;28;97129;-70
2022/01/07 10:29:49;;;;;;;1999.90;999.90;;;;;;;-1.60;57.00;100814.47;4940970;28;99079;-72
2022/01/07 10:32:26;;;;;;;1999.90;999.90;;;;;;;-1.64;56.75;100807.22;4946041;28;97699;-71
2022/01/07 10:35:09;;;;;;;1999.90;999.90;;;;;;;-1.69;56.61;100803.41;4927442;28;96831;-72
2022/01/07 10:37:46;;;;;;;1999.90;999.90;;;;;;;-1.69;57.05;100801.72;4946271;28;96874;-72
2022/01/07 10:40:31;;;;;;;1999.90;999.90;;;;;;;-1.98;59.75;100799.63;4928805;28;99527;-72
2022/01/07 10:43:19;;;;;;;1999.90;999.90;;;;;;;-2.03;61.93;100801.00;4941680;28;96790;-71
2022/01/07 10:45:49;;;;;;;1999.90;999.90;;;;;;;-2.13;61.93;100792.44;4892657;28;1126722;-73
2022/01/07 10:48:19;;;;;;;1999.90;999.90;;;;;;;-2.15;61.96;100784.50;4947033;28;96781;-72
2022/01/07 10:50:48;;;;;;;1999.90;999.90;;;;;;;-2.14;61.59;100791.53;4947819;28;97734;-72
2022/01/07 10:53:33;;;;;;;1999.90;999.90;;;;;;;-2.20;63.61;100785.81;4947402;28;97195;-72
2022/01/07 10:56:08;;;;;;;1999.90;999.90;;;;;;;-2.23;62.16;100772.59;4944411;28;97428;-72
2022/01/07 10:58:58;;;;;;;1999.90;999.90;;;;;;;-2.13;63.18;100774.19;4947634;28;98821;-72
2022/01/07 11:01:34;;;;;;;1999.90;999.90;;;;;;;-1.88;59.61;100778.63;4946911;28;97635;-73
2022/01/07 11:04:04;;;;;;;1999.90;999.90;;;;;;;-1.77;58.19;100774.16;4946927;28;97766;-72
2022/01/07 11:06:32;;;;;;;1999.90;999.90;;;;;;;-1.76;57.94;100769.88;4943234;28;97203;-72